createdAt,value
2022-11-24T00:01:18.466Z,100066.44
2022-11-24T00:03:54.302Z,100061.25
2022-11-24T00:06:20.987Z,100063.81
2022-11-24T00:08:48.393Z,100062.06
2022-11-24T00:11:17.330Z,100065.59
2022-11-24T00:13:44.410Z,100055.19
2022-11-24T00:16:16.099Z,100056.97
2022-11-24T00:18:44.241Z,100057.78
2022-11-24T00:21:11.264Z,100058.69
2022-11-24T00:23:38.243Z,100063.00
2022-11-24T00:26:06.049Z,100058.66
2022-11-24T00:28:34.022Z,100058.59
2022-11-24T00:31:01.292Z,100060.34
2022-11-24T00:33:28.010Z,100069.94
2022-11-24T00:35:57.169Z,100059.53
2022-11-24T00:38:24.405Z,100062.09
2022-11-24T00:40:52.145Z,100071.69
2022-11-24T00:43:19.424Z,100064.75
2022-11-24T00:45:48.392Z,100064.69
2022-11-24T00:48:15.357Z,100069.03
2022-11-24T00:50:42.137Z,100068.16
2022-11-24T00:53:08.820Z,100076.84
2022-11-24T00:55:35.671Z,100071.59
2022-11-24T00:58:02.476Z,100074.19
2022-11-24T01:00:29.615Z,100064.69
2022-11-24T01:02:56.390Z,100073.41
2022-11-24T01:05:27.366Z,100080.25
2022-11-24T01:07:54.222Z,100075.09
2022-11-24T01:10:21.750Z,100074.19
2022-11-24T01:12:48.435Z,100071.59
2022-11-24T01:15:15.132Z,100067.28
2022-11-24T01:17:41.731Z,100062.03
2022-11-24T01:20:09.320Z,100066.38
2022-11-24T01:22:35.955Z,100062.06
2022-11-24T01:25:02.611Z,100063.72
2022-11-24T01:27:29.226Z,100064.69
2022-11-24T01:29:55.828Z,100062.03
2022-11-24T01:32:22.489Z,100064.69
2022-11-24T01:34:49.293Z,100060.31
2022-11-24T01:37:15.905Z,100069.03
2022-11-24T01:39:42.531Z,100065.59
2022-11-24T01:42:09.238Z,100069.91
2022-11-24T01:44:36.152Z,100073.25
2022-11-24T01:47:08.084Z,100068.88
2022-11-24T01:49:42.029Z,100066.31
2022-11-24T01:52:16.269Z,100074.19
2022-11-24T01:54:44.389Z,100073.31
2022-11-24T01:57:25.971Z,100070.66
2022-11-24T01:59:56.355Z,100065.50
2022-11-24T02:02:23.620Z,100079.44
2022-11-24T02:04:50.994Z,100078.53
2022-11-24T02:07:18.227Z,100089.03
2022-11-24T02:09:51.488Z,100090.66
2022-11-24T02:12:18.099Z,100087.16
2022-11-24T02:14:45.003Z,100081.06
2022-11-24T02:17:12.002Z,100075.97
2022-11-24T02:19:49.117Z,100088.94
2022-11-24T02:22:27.936Z,100088.03
2022-11-24T02:25:33.229Z,100098.47
2022-11-24T02:28:00.925Z,100099.25
2022-11-24T02:30:27.787Z,100099.28
2022-11-24T02:32:55.031Z,100106.25
2022-11-24T02:35:21.827Z,100106.25
2022-11-24T02:37:48.570Z,100111.50
2022-11-24T02:40:16.763Z,100112.31
2022-11-24T02:42:45.427Z,100122.84
2022-11-24T02:45:12.434Z,100121.84
2022-11-24T02:47:39.081Z,100127.94
2022-11-24T02:50:06.193Z,100125.38
2022-11-24T02:52:32.981Z,100128.00
2022-11-24T02:54:59.590Z,100126.25
2022-11-24T02:57:26.208Z,100127.94
2022-11-24T02:59:52.829Z,100122.72
2022-11-24T03:02:19.461Z,100133.13
2022-11-24T03:04:46.121Z,100120.25
2022-11-24T03:07:12.807Z,100120.28
2022-11-24T03:09:39.489Z,100120.28
2022-11-24T03:12:06.638Z,100119.38
2022-11-24T03:14:33.527Z,100121.94
2022-11-24T03:17:00.350Z,100126.28
2022-11-24T03:19:27.008Z,100111.56
2022-11-24T03:21:53.650Z,100117.56
2022-11-24T03:24:20.289Z,100117.59
2022-11-24T03:26:46.908Z,100129.72
2022-11-24T03:29:13.504Z,100118.38
2022-11-24T03:31:40.241Z,100124.59
2022-11-24T03:34:06.947Z,100126.25
2022-11-24T03:36:33.577Z,100118.44
2022-11-24T03:39:00.191Z,100132.38
2022-11-24T03:41:26.788Z,100128.84
2022-11-24T03:43:53.569Z,100130.53
2022-11-24T03:46:20.306Z,100126.06
2022-11-24T03:48:46.943Z,100125.25
2022-11-24T03:51:13.667Z,100127.00
2022-11-24T03:53:40.300Z,100130.47
2022-11-24T03:56:07.122Z,100138.22
2022-11-24T03:58:33.732Z,100134.75
2022-11-24T04:01:00.392Z,100133.97
2022-11-24T04:03:27.059Z,100146.22
2022-11-24T04:05:53.667Z,100146.97
2022-11-24T04:08:20.606Z,100143.44
2022-11-24T04:10:52.271Z,100139.06
2022-11-24T04:13:21.145Z,100161.59
2022-11-24T04:15:48.071Z,100173.84
2022-11-24T04:18:14.812Z,100170.25
2022-11-24T04:20:41.983Z,100159.91
2022-11-24T04:23:09.168Z,100173.66
2022-11-24T04:25:36.039Z,100171.97
2022-11-24T04:28:04.363Z,100165.84
2022-11-24T04:30:31.179Z,100163.28
2022-11-24T04:32:57.786Z,100160.69
2022-11-24T04:35:24.487Z,100169.34
2022-11-24T04:37:51.122Z,100163.38
2022-11-24T04:40:17.908Z,100173.94
2022-11-24T04:42:44.838Z,100165.13
2022-11-24T04:45:11.525Z,100170.25
2022-11-24T04:47:38.485Z,100179.06
2022-11-24T04:50:07.737Z,100180.78
2022-11-24T04:52:34.441Z,100186.81
2022-11-24T04:55:01.313Z,100191.09
2022-11-24T04:57:27.978Z,100197.22
2022-11-24T04:59:55.023Z,100198.13
2022-11-24T05:02:22.318Z,100192.09
2022-11-24T05:04:49.016Z,100184.19
2022-11-24T05:07:18.649Z,100195.47
2022-11-24T05:10:05.457Z,100194.53
2022-11-24T05:12:32.238Z,100193.72
2022-11-24T05:14:59.555Z,100198.09
2022-11-24T05:17:30.749Z,100189.47
2022-11-24T05:19:57.832Z,100194.63
2022-11-24T05:22:24.826Z,100200.91
2022-11-24T05:24:51.628Z,100199.84
2022-11-24T05:27:18.246Z,100199.94
2022-11-24T05:29:44.944Z,100195.41
2022-11-24T05:32:11.568Z,100207.53
2022-11-24T05:34:38.521Z,100201.41
2022-11-24T05:37:05.172Z,100205.97
2022-11-24T05:39:35.991Z,100212.84
2022-11-24T05:42:23.939Z,100222.34
2022-11-24T05:44:50.875Z,100224.81
2022-11-24T05:47:17.678Z,100237.91
2022-11-24T05:49:44.330Z,100242.31
2022-11-24T05:52:11.413Z,100242.31
2022-11-24T05:54:38.183Z,100237.97
2022-11-24T05:57:05.345Z,100239.81
2022-11-24T05:59:31.995Z,100234.53
2022-11-24T06:01:58.798Z,100235.31
2022-11-24T06:04:26.026Z,100244.84
2022-11-24T06:06:52.735Z,100247.53
2022-11-24T06:09:19.387Z,100255.16
2022-11-24T06:11:47.500Z,100259.66
2022-11-24T06:14:14.561Z,100268.34
2022-11-24T06:16:41.324Z,100265.66
2022-11-24T06:19:09.651Z,100272.59
2022-11-24T06:21:36.417Z,100281.34
2022-11-24T06:24:03.096Z,100276.00
2022-11-24T06:26:29.703Z,100279.47
2022-11-24T06:28:56.342Z,100270.78
2022-11-24T06:31:23.319Z,100278.59
2022-11-24T06:33:50.133Z,100279.63
2022-11-24T06:36:16.788Z,100283.97
2022-11-24T06:38:43.390Z,100287.44
2022-11-24T06:41:13.079Z,100284.78
2022-11-24T06:43:40.228Z,100292.66
2022-11-24T06:46:07.145Z,100293.44
2022-11-24T06:48:34.122Z,100298.81
2022-11-24T06:51:02.263Z,100294.31
2022-11-24T06:53:32.907Z,100293.34
2022-11-24T06:56:00.758Z,100297.75
2022-11-24T06:58:27.845Z,100302.13
2022-11-24T07:00:54.623Z,100295.16
2022-11-24T07:03:21.374Z,100301.31
2022-11-24T07:05:48.060Z,100299.50
2022-11-24T07:08:17.902Z,100304.84
2022-11-24T07:10:44.786Z,100306.44
2022-11-24T07:13:11.431Z,100302.13
2022-11-24T07:15:38.099Z,100303.16
2022-11-24T07:18:04.839Z,100310.00
2022-11-24T07:20:31.634Z,100310.06
2022-11-24T07:22:58.801Z,100320.41
2022-11-24T07:25:25.720Z,100315.13
2022-11-24T07:27:58.946Z,100322.22
2022-11-24T07:30:27.017Z,100313.72
2022-11-24T07:32:59.174Z,100319.72
2022-11-24T07:35:25.894Z,100321.38
2022-11-24T07:37:56.807Z,100327.56
2022-11-24T07:40:24.738Z,100331.91
2022-11-24T07:42:51.549Z,100335.25
2022-11-24T07:45:18.236Z,100328.47
2022-11-24T07:47:44.968Z,100336.31
2022-11-24T07:50:12.507Z,100337.16
2022-11-24T07:52:39.512Z,100331.97
2022-11-24T07:55:07.697Z,100350.09
2022-11-24T07:57:34.477Z,100340.63
2022-11-24T08:00:01.155Z,100342.34
2022-11-24T08:02:27.829Z,100340.72
2022-11-24T08:04:54.545Z,100343.31
2022-11-24T08:07:22.424Z,100337.72
2022-11-24T08:09:50.484Z,100343.00
2022-11-24T08:12:21.549Z,100346.50
2022-11-24T08:14:49.882Z,100344.78
2022-11-24T08:17:19.788Z,100350.88
2022-11-24T08:19:46.573Z,100346.53
2022-11-24T08:22:13.302Z,100351.03
2022-11-24T08:24:46.204Z,100353.63
2022-11-24T08:27:13.925Z,100357.22
2022-11-24T08:29:40.659Z,100356.38
2022-11-24T08:32:07.695Z,100352.09
2022-11-24T08:34:34.747Z,100356.44
2022-11-24T08:37:04.186Z,100354.72
2022-11-24T08:39:31.174Z,100353.91
2022-11-24T08:41:57.899Z,100350.44
2022-11-24T08:44:24.807Z,100360.00
2022-11-24T08:46:54.022Z,100365.22
2022-11-24T08:49:21.907Z,100362.69
2022-11-24T08:51:50.050Z,100360.94
2022-11-24T08:54:18.759Z,100373.06
2022-11-24T08:56:46.161Z,100373.97
2022-11-24T08:59:13.932Z,100372.28
2022-11-24T09:01:41.804Z,100378.34
2022-11-24T09:04:08.725Z,100389.69
2022-11-24T09:06:35.403Z,100390.63
2022-11-24T09:09:02.113Z,100401.91
2022-11-24T09:11:29.222Z,100394.09
2022-11-24T09:13:56.033Z,100396.69
2022-11-24T09:16:26.040Z,100401.00
2022-11-24T09:19:01.584Z,100390.63
2022-11-24T09:21:29.240Z,100392.34
2022-11-24T09:23:56.285Z,100395.81
2022-11-24T09:26:25.665Z,100384.63
2022-11-24T09:28:56.389Z,100388.03
2022-11-24T09:31:29.798Z,100395.84
2022-11-24T09:33:57.127Z,100389.00
2022-11-24T09:36:24.426Z,100400.41
2022-11-24T09:38:51.140Z,100389.91
2022-11-24T09:41:18.322Z,100396.63
2022-11-24T09:44:17.889Z,100389.91
2022-11-24T09:47:06.026Z,100397.59
2022-11-24T09:49:55.959Z,100399.50
2022-11-24T09:53:01.587Z,100405.63
2022-11-24T09:55:37.482Z,100413.38
2022-11-24T09:58:42.324Z,100409.91
2022-11-24T10:01:38.026Z,100419.44
2022-11-24T10:04:15.185Z,100423.88
2022-11-24T10:07:01.748Z,100423.00
2022-11-24T10:09:37.555Z,100418.69
2022-11-24T10:12:28.475Z,100424.88
2022-11-24T10:15:11.166Z,100429.19
2022-11-24T10:18:16.471Z,100429.16
2022-11-24T10:21:02.489Z,100434.44
2022-11-24T10:23:58.603Z,100423.28
2022-11-24T10:26:35.637Z,100426.75
2022-11-24T10:29:22.972Z,100423.34
2022-11-24T10:31:52.841Z,100433.84
2022-11-24T10:34:31.564Z,100434.66
2022-11-24T10:37:03.278Z,100429.50
2022-11-24T10:39:41.466Z,100432.16
2022-11-24T10:42:30.380Z,100432.22
2022-11-24T10:45:17.611Z,100437.38
2022-11-24T10:47:45.532Z,100440.97
2022-11-24T10:50:24.053Z,100438.19
2022-11-24T10:53:14.646Z,100437.38
2022-11-24T10:55:57.344Z,100426.13
2022-11-24T10:58:34.431Z,100433.91
2022-11-24T11:01:13.405Z,100420.06
2022-11-24T11:03:51.871Z,100427.09
2022-11-24T11:06:22.723Z,100434.88
2022-11-24T11:08:49.375Z,100441.94
2022-11-24T11:11:28.168Z,100448.94
2022-11-24T11:14:04.670Z,100448.94
2022-11-24T11:16:50.708Z,100446.25
2022-11-24T11:19:58.612Z,100442.78
2022-11-24T11:22:30.430Z,100441.91
2022-11-24T11:25:12.432Z,100439.38
2022-11-24T11:27:40.107Z,100435.88
2022-11-24T11:35:50.352Z,100427.22
2022-11-24T11:38:17.251Z,100431.59
2022-11-24T11:40:44.020Z,100426.41
2022-11-24T11:43:26.801Z,100433.38
2022-11-24T11:46:07.106Z,100436.00
2022-11-24T11:48:42.756Z,100431.63
2022-11-24T11:51:25.596Z,100427.28
2022-11-24T11:54:13.453Z,100429.03
2022-11-24T11:56:45.210Z,100425.56
2022-11-24T11:59:31.769Z,100429.91
2022-11-24T12:02:19.120Z,100429.91
2022-11-24T12:04:59.874Z,100428.16
2022-11-24T12:08:20.758Z,100424.72
2022-11-24T12:11:01.132Z,100422.88
2022-11-24T12:13:38.541Z,100427.25
2022-11-24T12:16:37.691Z,100420.13
2022-11-24T12:19:12.635Z,100430.69
2022-11-24T12:21:50.371Z,100432.44
2022-11-24T12:24:54.907Z,100428.13
2022-11-24T12:27:33.198Z,100431.56
2022-11-24T12:30:16.409Z,100438.53
2022-11-24T12:33:03.419Z,100431.53
2022-11-24T12:35:46.440Z,100434.16
2022-11-24T12:38:34.437Z,100443.72
2022-11-24T12:41:43.966Z,100447.25
2022-11-24T12:44:45.284Z,100445.50
2022-11-24T12:47:14.329Z,100448.13
2022-11-24T12:49:55.789Z,100442.06
2022-11-24T12:52:28.813Z,100447.28
2022-11-24T12:54:56.126Z,100460.34
2022-11-24T12:57:34.116Z,100454.31
2022-11-24T13:00:09.177Z,100453.41
2022-11-24T13:02:51.217Z,100463.94
2022-11-24T13:05:32.927Z,100465.66
2022-11-24T13:08:04.640Z,100475.16
2022-11-24T13:10:55.353Z,100475.13
2022-11-24T13:13:27.995Z,100465.56
2022-11-24T13:17:06.198Z,100474.22
2022-11-24T13:18:57.035Z,100472.53
2022-11-24T13:21:50.401Z,100472.50
2022-11-24T13:24:17.567Z,100469.00
2022-11-24T13:26:48.560Z,100474.22
2022-11-24T13:29:27.299Z,100469.88
2022-11-24T13:31:55.063Z,100476.78
2022-11-24T13:34:49.634Z,100474.19
2022-11-24T13:37:40.555Z,100477.66
2022-11-24T13:40:13.500Z,100473.31
2022-11-24T13:43:12.709Z,100481.09
2022-11-24T13:45:39.275Z,100486.38
2022-11-24T13:48:22.480Z,100491.56
2022-11-24T13:50:49.448Z,100500.28
2022-11-24T13:53:36.036Z,100495.94
2022-11-24T13:56:02.550Z,100507.25
2022-11-24T13:58:32.519Z,100504.66
2022-11-24T14:01:36.103Z,100498.56
2022-11-24T14:04:32.083Z,100509.00
2022-11-24T14:07:07.294Z,100502.09
2022-11-24T14:09:40.317Z,100507.31
2022-11-24T14:12:13.614Z,100498.59
2022-11-24T14:14:40.850Z,100509.06
2022-11-24T14:17:15.598Z,100512.56
2022-11-24T14:19:43.425Z,100513.41
2022-11-24T14:22:21.302Z,100518.63
2022-11-24T14:24:56.537Z,100525.59
2022-11-24T14:27:38.028Z,100531.63
2022-11-24T14:30:18.029Z,100522.00
2022-11-24T14:32:59.882Z,100541.16
2022-11-24T14:35:33.510Z,100537.72
2022-11-24T14:38:02.312Z,100545.50
2022-11-24T14:40:55.041Z,100546.44
2022-11-24T14:43:24.202Z,100553.38
2022-11-24T14:45:53.329Z,100559.44
2022-11-24T14:48:26.428Z,100562.03
2022-11-24T14:50:53.968Z,100567.22
2022-11-24T14:53:26.231Z,100571.59
2022-11-24T14:56:35.545Z,100568.94
2022-11-24T14:59:02.610Z,100578.59
2022-11-24T15:01:29.608Z,100581.19
2022-11-24T15:04:46.344Z,100573.34
2022-11-24T15:07:19.514Z,100582.00
2022-11-24T15:09:50.569Z,100590.69
2022-11-24T15:12:34.433Z,100588.09
2022-11-24T15:15:07.792Z,100579.38
2022-11-24T15:17:34.509Z,100588.88
2022-11-24T15:20:08.038Z,100582.78
2022-11-24T15:22:41.869Z,100598.47
2022-11-24T15:25:40.927Z,100600.19
2022-11-24T15:28:08.583Z,100594.97
2022-11-24T15:30:38.567Z,100610.56
2022-11-24T15:33:14.124Z,100612.28
2022-11-24T15:35:40.837Z,100606.13
2022-11-24T15:38:07.707Z,100607.09
2022-11-24T15:40:34.695Z,100614.03
2022-11-24T15:43:06.287Z,100614.13
2022-11-24T15:45:34.327Z,100612.38
2022-11-24T15:48:01.279Z,100621.88
2022-11-24T15:50:28.138Z,100627.97
2022-11-24T15:52:57.030Z,100641.00
2022-11-24T15:55:23.712Z,100631.50
2022-11-24T15:57:50.515Z,100630.59
2022-11-24T16:00:21.831Z,100629.72
2022-11-24T16:02:48.718Z,100624.56
2022-11-24T16:05:16.326Z,100625.56
2022-11-24T16:07:43.470Z,100622.91
2022-11-24T16:10:22.050Z,100629.78
2022-11-24T16:12:51.548Z,100618.44
2022-11-24T16:15:18.776Z,100625.41
2022-11-24T16:17:45.455Z,100620.13
2022-11-24T16:20:12.867Z,100617.50
2022-11-24T16:22:39.604Z,100619.28
2022-11-24T16:25:06.698Z,100627.03
2022-11-24T16:27:35.536Z,100624.50
2022-11-24T16:30:02.569Z,100622.91
2022-11-24T16:32:29.361Z,100632.22
2022-11-24T16:34:56.063Z,100636.50
2022-11-24T16:37:22.909Z,100642.56
2022-11-24T16:39:50.396Z,100645.13
2022-11-24T16:42:17.418Z,100642.56
2022-11-24T16:44:44.160Z,100648.69
2022-11-24T16:47:13.731Z,100642.56
2022-11-24T16:49:40.390Z,100646.91
2022-11-24T16:52:08.522Z,100651.31
2022-11-24T16:54:35.447Z,100657.44
2022-11-24T16:57:02.221Z,100649.53
2022-11-24T16:59:29.057Z,100650.38
2022-11-24T17:01:55.789Z,100650.38
2022-11-24T17:04:22.435Z,100649.47
2022-11-24T17:06:49.155Z,100650.31
2022-11-24T17:09:16.961Z,100656.53
2022-11-24T17:11:43.653Z,100662.56
2022-11-24T17:14:10.934Z,100666.84
2022-11-24T17:16:38.525Z,100657.16
2022-11-24T17:19:05.702Z,100658.00
2022-11-24T17:21:32.962Z,100652.75
2022-11-24T17:24:01.655Z,100653.69
2022-11-24T17:26:28.489Z,100650.16
2022-11-24T17:28:56.038Z,100650.16
2022-11-24T17:31:27.809Z,100652.84
2022-11-24T17:33:56.605Z,100651.94
2022-11-24T17:36:23.771Z,100646.72
2022-11-24T17:38:50.683Z,100656.25
2022-11-24T17:41:18.032Z,100651.09
2022-11-24T17:43:49.187Z,100655.41
2022-11-24T17:46:16.106Z,100654.59
2022-11-24T17:48:42.812Z,100660.69
2022-11-24T17:51:14.720Z,100665.09
2022-11-24T17:53:43.131Z,100670.22
2022-11-24T17:56:37.666Z,100685.28
2022-11-24T17:59:04.628Z,100688.66
2022-11-24T18:01:32.324Z,100685.09
2022-11-24T18:03:59.479Z,100697.28
2022-11-24T18:06:28.584Z,100689.47
2022-11-24T18:09:00.800Z,100683.38
2022-11-24T18:11:31.900Z,100685.13
2022-11-24T18:14:02.430Z,100695.72
2022-11-24T18:16:33.470Z,100688.59
2022-11-24T18:19:10.448Z,100695.56
2022-11-24T18:21:39.476Z,100696.38
2022-11-24T18:24:09.717Z,100698.13
2022-11-24T18:26:40.422Z,100689.38
2022-11-24T18:29:07.961Z,100692.84
2022-11-24T18:31:35.807Z,100689.34
2022-11-24T18:34:04.213Z,100693.69
2022-11-24T18:36:31.375Z,100697.94
2022-11-24T18:39:01.129Z,100694.44
2022-11-24T18:41:27.860Z,100690.88
2022-11-24T18:43:54.540Z,100685.66
2022-11-24T18:46:24.134Z,100697.00
2022-11-24T18:48:53.062Z,100702.44
2022-11-24T18:51:19.892Z,100707.94
2022-11-24T18:53:46.969Z,100706.78
2022-11-24T18:56:17.653Z,100711.00
2022-11-24T18:58:44.786Z,100705.69
2022-11-24T19:01:20.346Z,100712.59
2022-11-24T19:03:51.871Z,100707.53
2022-11-24T19:06:24.028Z,100699.72
2022-11-24T19:08:53.235Z,100699.88
2022-11-24T19:11:22.646Z,100700.78
2022-11-24T19:13:49.510Z,100702.31
2022-11-24T19:16:16.980Z,100694.41
2022-11-24T19:18:46.493Z,100712.84
2022-11-24T19:21:18.123Z,100714.00
2022-11-24T19:23:45.359Z,100718.38
2022-11-24T19:26:12.240Z,100721.66
2022-11-24T19:28:39.248Z,100720.56
2022-11-24T19:31:08.347Z,100725.91
2022-11-24T19:33:35.470Z,100724.88
2022-11-24T19:36:08.923Z,100735.31
2022-11-24T19:38:35.994Z,100735.31
2022-11-24T19:41:07.948Z,100729.94
2022-11-24T19:43:35.085Z,100733.41
2022-11-24T19:46:03.205Z,100743.78
2022-11-24T19:48:34.332Z,100740.22
2022-11-24T19:51:04.603Z,100741.09
2022-11-24T19:53:31.850Z,100743.59
2022-11-24T19:56:18.163Z,100757.47
2022-11-24T19:58:50.332Z,100747.06
2022-11-24T20:01:26.434Z,100753.91
2022-11-24T20:04:02.952Z,100751.94
2022-11-24T20:06:32.052Z,100756.38
2022-11-24T20:09:01.160Z,100752.91
2022-11-24T20:11:28.678Z,100758.22
2022-11-24T20:13:56.245Z,100752.13
2022-11-24T20:16:30.863Z,100757.34
2022-11-24T20:18:59.863Z,100765.16
2022-11-24T20:21:29.119Z,100761.69
2022-11-24T20:23:58.867Z,100767.88
2022-11-24T20:26:28.293Z,100766.06
2022-11-24T20:28:57.921Z,100766.16
2022-11-24T20:31:28.688Z,100771.31
2022-11-24T20:33:56.088Z,100777.31
2022-11-24T20:36:25.560Z,100768.66
2022-11-24T20:38:58.892Z,100776.44
2022-11-24T20:41:34.357Z,100777.31
2022-11-24T20:44:09.179Z,100776.69
2022-11-24T20:46:44.867Z,100778.31
2022-11-24T20:49:19.191Z,100767.88
2022-11-24T20:51:48.128Z,100780.94
2022-11-24T20:54:17.357Z,100779.22
2022-11-24T20:56:46.486Z,100781.06
2022-11-24T20:59:27.714Z,100785.38
2022-11-24T21:02:00.853Z,100781.97
2022-11-24T21:04:28.124Z,100786.44
2022-11-24T21:07:00.079Z,100793.25
2022-11-24T21:09:27.933Z,100788.03
2022-11-24T21:12:00.009Z,100781.06
2022-11-24T21:14:38.699Z,100782.81
2022-11-24T21:17:06.111Z,100794.09
2022-11-24T21:19:36.184Z,100795.84
2022-11-24T21:22:09.728Z,100792.41
2022-11-24T21:24:39.853Z,100785.50
2022-11-24T21:27:06.711Z,100790.66
2022-11-24T21:29:33.691Z,100790.63
2022-11-24T21:32:00.836Z,100792.66
2022-11-24T21:34:28.393Z,100802.03
2022-11-24T21:36:55.778Z,100795.84
2022-11-24T21:39:22.916Z,100800.16
2022-11-24T21:41:49.732Z,100802.75
2022-11-24T21:44:17.182Z,100798.44
2022-11-24T21:46:52.776Z,100798.59
2022-11-24T21:49:22.958Z,100802.03
2022-11-24T21:51:55.533Z,100809.84
2022-11-24T21:54:24.029Z,100809.97
2022-11-24T21:56:51.228Z,100814.34
2022-11-24T21:59:25.371Z,100815.94
2022-11-24T22:01:54.773Z,100821.09
2022-11-24T22:04:24.559Z,100822.00
2022-11-24T22:06:53.594Z,100828.03
2022-11-24T22:09:22.287Z,100827.22
2022-11-24T22:11:49.813Z,100821.16
2022-11-24T22:14:16.891Z,100835.03
2022-11-24T22:16:43.665Z,100830.69
2022-11-24T22:19:11.509Z,100828.09
2022-11-24T22:21:40.254Z,100827.03
2022-11-24T22:24:12.675Z,100831.56
2022-11-24T22:26:39.989Z,100837.69
2022-11-24T22:29:08.699Z,100834.19
2022-11-24T22:31:35.403Z,100829.75
2022-11-24T22:34:02.577Z,100834.94
2022-11-24T22:36:33.350Z,100829.78
2022-11-24T22:39:04.555Z,100836.72
2022-11-24T22:41:33.418Z,100833.19
2022-11-24T22:44:01.721Z,100831.19
2022-11-24T22:46:29.978Z,100839.88
2022-11-24T22:49:00.975Z,100838.28
2022-11-24T22:51:29.973Z,100841.88
2022-11-24T22:54:01.416Z,100843.78
2022-11-24T22:56:33.003Z,100851.47
2022-11-24T22:59:04.776Z,100848.88
2022-11-24T23:01:33.940Z,100855.81
2022-11-24T23:04:01.940Z,100856.94
2022-11-24T23:06:31.155Z,100867.72
2022-11-24T23:09:09.701Z,100863.16
2022-11-24T23:11:38.630Z,100861.16
2022-11-24T23:14:15.294Z,100852.31
2022-11-24T23:16:42.651Z,100863.75
2022-11-24T23:19:09.620Z,100862.06
2022-11-24T23:21:38.435Z,100867.13
2022-11-24T23:24:11.675Z,100853.19
2022-11-24T23:26:40.124Z,100855.81
2022-11-24T23:29:13.477Z,100853.19
2022-11-24T23:31:40.997Z,100849.81
2022-11-24T23:34:08.370Z,100854.06
2022-11-24T23:36:35.167Z,100853.09
2022-11-24T23:39:14.279Z,100846.16
2022-11-24T23:41:44.439Z,100844.28
2022-11-24T23:44:11.237Z,100850.44
2022-11-24T23:46:38.501Z,100844.34
2022-11-24T23:49:05.598Z,100849.56
2022-11-24T23:51:35.482Z,100855.69
2022-11-24T23:54:08.903Z,100851.38
2022-11-24T23:56:40.014Z,100845.34
2022-11-24T23:59:07.117Z,100844.41
